createdAt,value
2023-03-18T00:07:27.482Z,0.33
2023-03-18T00:15:44.915Z,0.20
2023-03-18T00:21:06.934Z,0.00
2023-03-18T00:58:44.238Z,0.00
2023-03-18T01:04:08.197Z,0.75
2023-03-18T02:58:04.564Z,1.25
2023-03-18T03:03:28.139Z,0.93
2023-03-18T06:10:28.433Z,1.70
2023-03-18T06:15:52.413Z,2.57
2023-03-18T06:21:15.945Z,2.70
2023-03-18T06:26:38.055Z,2.37
2023-03-18T06:32:00.096Z,1.50
2023-03-18T07:00:47.686Z,1.30
2023-03-18T07:09:07.002Z,2.65
2023-03-18T07:14:29.000Z,2.30
2023-03-18T07:19:51.037Z,1.52
2023-03-18T07:39:55.451Z,2.42
2023-03-18T07:56:59.187Z,2.47
2023-03-18T08:02:21.166Z,3.10
2023-03-18T08:07:43.217Z,2.10
2023-03-18T08:13:07.282Z,2.90
2023-03-18T08:18:30.328Z,2.83
2023-03-18T08:23:52.352Z,2.37
2023-03-18T08:29:14.576Z,1.85
2023-03-18T08:46:20.213Z,2.50
2023-03-18T08:54:40.970Z,2.37
2023-03-18T09:02:58.043Z,2.28
2023-03-18T09:08:20.008Z,0.52
2023-03-18T09:13:44.010Z,1.98
2023-03-18T09:19:06.034Z,2.87
2023-03-18T09:24:30.872Z,2.10
2023-03-18T09:29:52.971Z,2.17
2023-03-18T09:35:17.144Z,3.53
2023-03-18T09:46:44.766Z,1.73
2023-03-18T09:52:16.177Z,2.37
2023-03-18T09:57:38.425Z,1.55
2023-03-18T10:05:56.071Z,1.40
2023-03-18T10:11:18.366Z,1.67
2023-03-18T10:16:42.632Z,0.90
2023-03-18T10:22:05.028Z,1.08
2023-03-18T10:27:27.497Z,1.25
2023-03-18T10:32:50.589Z,1.90
2023-03-18T10:38:13.889Z,0.60
2023-03-18T10:46:31.412Z,2.55
2023-03-18T10:51:53.893Z,1.45
2023-03-18T10:57:17.879Z,0.93
2023-03-18T11:02:39.881Z,0.85
2023-03-18T11:08:04.028Z,1.50
2023-03-18T11:13:27.444Z,1.45
2023-03-18T11:18:49.825Z,0.88
2023-03-18T11:24:11.987Z,1.05
2023-03-18T11:29:45.612Z,1.20
2023-03-18T11:35:07.762Z,0.85
2023-03-18T11:40:30.270Z,0.47
2023-03-18T11:45:52.607Z,0.30
2023-03-18T11:51:16.688Z,0.20
2023-03-18T11:56:43.928Z,0.62
2023-03-18T11:59:33.385Z,0.62
2023-03-18T12:04:57.845Z,0.50
2023-03-18T12:10:21.262Z,1.25
2023-03-18T12:15:44.610Z,0.30
2023-03-18T12:21:09.609Z,0.20
2023-03-18T12:26:35.801Z,0.28
2023-03-18T12:32:06.443Z,0.62
2023-03-18T12:37:33.607Z,0.60
2023-03-18T12:40:23.467Z,0.62
2023-03-18T12:45:50.002Z,0.40
2023-03-18T12:51:12.884Z,1.12
2023-03-18T13:02:26.932Z,0.35
2023-03-18T13:07:51.137Z,0.37
2023-03-18T13:16:12.549Z,1.23
2023-03-18T13:21:36.503Z,0.20
2023-03-18T13:27:03.395Z,0.43
2023-03-18T13:35:25.404Z,0.45
2023-03-18T13:40:51.332Z,0.45
2023-03-18T13:46:13.473Z,0.30
2023-03-18T13:51:36.028Z,0.45
2023-03-18T13:59:53.560Z,0.43
2023-03-18T14:02:43.986Z,0.93
2023-03-18T14:05:29.490Z,0.70
2023-03-18T14:10:51.692Z,0.20
2023-03-18T14:16:23.156Z,0.73
2023-03-18T14:36:47.059Z,0.50
2023-03-18T15:00:00.001Z,0.80
2023-03-18T16:39:40.786Z,0.50
2023-03-18T16:45:04.183Z,0.68
2023-03-18T17:11:10.126Z,0.40
2023-03-18T23:00:21.292Z,0.77
